sensor_id;sensor_type;location;lat;lon;timestamp;P1;durP1;ratioP1;P2;durP2;ratioP2
20014;SDS011;61787;42.022;23.078;2023-07-30T00:00:58;4.53;;;3.85;;
20014;SDS011;61787;42.022;23.078;2023-07-30T00:02:00;5.88;;;4.38;;
20014;SDS011;61787;42.022;23.078;2023-07-30T00:03:02;4.82;;;3.95;;
20014;SDS011;61787;42.022;23.078;2023-07-30T00:04:03;5.65;;;3.95;;
20014;SDS011;61787;42.022;23.078;2023-07-30T00:05:05;5.70;;;4.50;;
20014;SDS011;61787;42.022;23.078;2023-07-30T00:06:07;4.13;;;3.72;;
20014;SDS011;61787;42.022;23.078;2023-07-30T00:07:09;4.65;;;3.85;;
20014;SDS011;61787;42.022;23.078;2023-07-30T00:08:10;7.00;;;4.07;;
20014;SDS011;61787;42.022;23.078;2023-07-30T00:09:12;5.75;;;3.70;;
20014;SDS011;61787;42.022;23.078;2023-07-30T00:10:14;4.07;;;3.78;;
20014;SDS011;61787;42.022;23.078;2023-07-30T00:11:15;7.15;;;3.97;;
20014;SDS011;61787;42.022;23.078;2023-07-30T00:12:17;4.50;;;3.70;;
20014;SDS011;61787;42.022;23.078;2023-07-30T00:13:18;6.70;;;3.80;;
20014;SDS011;61787;42.022;23.078;2023-07-30T00:14:20;4.63;;;3.60;;
20014;SDS011;61787;42.022;23.078;2023-07-30T00:15:22;3.83;;;3.38;;
20014;SDS011;61787;42.022;23.078;2023-07-30T00:16:25;3.47;;;3.17;;
20014;SDS011;61787;42.022;23.078;2023-07-30T00:17:28;6.00;;;3.63;;
20014;SDS011;61787;42.022;23.078;2023-07-30T00:18:30;8.23;;;3.25;;
20014;SDS011;61787;42.022;23.078;2023-07-30T00:19:31;8.43;;;3.42;;
20014;SDS011;61787;42.022;23.078;2023-07-30T00:20:36;8.05;;;3.45;;
20014;SDS011;61787;42.022;23.078;2023-07-30T00:21:37;3.88;;;3.47;;
20014;SDS011;61787;42.022;23.078;2023-07-30T00:22:39;4.88;;;3.78;;
20014;SDS011;61787;42.022;23.078;2023-07-30T00:23:41;3.95;;;3.58;;
20014;SDS011;61787;42.022;23.078;2023-07-30T00:24:42;4.10;;;3.70;;
20014;SDS011;61787;42.022;23.078;2023-07-30T00:25:44;3.35;;;3.10;;
20014;SDS011;61787;42.022;23.078;2023-07-30T00:26:46;3.58;;;3.00;;
20014;SDS011;61787;42.022;23.078;2023-07-30T00:27:47;3.58;;;2.90;;
20014;SDS011;61787;42.022;23.078;2023-07-30T00:28:50;3.20;;;2.50;;
20014;SDS011;61787;42.022;23.078;2023-07-30T00:29:51;2.95;;;2.65;;
20014;SDS011;61787;42.022;23.078;2023-07-30T00:30:53;3.40;;;3.10;;
20014;SDS011;61787;42.022;23.078;2023-07-30T00:31:54;4.13;;;2.72;;
20014;SDS011;61787;42.022;23.078;2023-07-30T00:32:56;4.45;;;3.00;;
20014;SDS011;61787;42.022;23.078;2023-07-30T00:33:58;3.22;;;2.90;;
20014;SDS011;61787;42.022;23.078;2023-07-30T00:34:59;3.55;;;2.83;;
20014;SDS011;61787;42.022;23.078;2023-07-30T00:36:01;3.00;;;2.80;;
20014;SDS011;61787;42.022;23.078;2023-07-30T00:37:03;3.47;;;2.97;;
20014;SDS011;61787;42.022;23.078;2023-07-30T00:38:04;5.38;;;3.08;;
20014;SDS011;61787;42.022;23.078;2023-07-30T00:39:06;3.85;;;2.75;;
20014;SDS011;61787;42.022;23.078;2023-07-30T00:40:08;4.25;;;3.17;;
20014;SDS011;61787;42.022;23.078;2023-07-30T00:41:10;4.18;;;3.00;;
20014;SDS011;61787;42.022;23.078;2023-07-30T00:42:11;4.80;;;3.60;;
20014;SDS011;61787;42.022;23.078;2023-07-30T00:43:13;4.25;;;3.28;;
20014;SDS011;61787;42.022;23.078;2023-07-30T00:44:14;6.95;;;4.03;;
20014;SDS011;61787;42.022;23.078;2023-07-30T00:45:16;4.50;;;3.50;;
20014;SDS011;61787;42.022;23.078;2023-07-30T00:46:18;3.35;;;3.05;;
20014;SDS011;61787;42.022;23.078;2023-07-30T00:47:20;3.47;;;3.17;;
20014;SDS011;61787;42.022;23.078;2023-07-30T00:48:23;4.50;;;3.72;;
20014;SDS011;61787;42.022;23.078;2023-07-30T00:49:24;3.78;;;2.92;;
20014;SDS011;61787;42.022;23.078;2023-07-30T00:50:26;3.90;;;3.25;;
20014;SDS011;61787;42.022;23.078;2023-07-30T00:51:28;3.67;;;2.90;;
20014;SDS011;61787;42.022;23.078;2023-07-30T00:52:32;3.40;;;3.10;;
20014;SDS011;61787;42.022;23.078;2023-07-30T00:53:35;4.43;;;3.08;;
20014;SDS011;61787;42.022;23.078;2023-07-30T00:54:38;4.82;;;3.15;;
20014;SDS011;61787;42.022;23.078;2023-07-30T00:55:41;6.55;;;3.80;;
20014;SDS011;61787;42.022;23.078;2023-07-30T00:56:44;3.40;;;3.10;;
20014;SDS011;61787;42.022;23.078;2023-07-30T00:57:51;4.55;;;3.60;;
20014;SDS011;61787;42.022;23.078;2023-07-30T00:58:53;5.22;;;4.10;;
20014;SDS011;61787;42.022;23.078;2023-07-30T00:59:56;4.78;;;3.38;;
20014;SDS011;61787;42.022;23.078;2023-07-30T01:00:58;4.43;;;4.00;;
20014;SDS011;61787;42.022;23.078;2023-07-30T01:02:00;5.30;;;3.83;;
20014;SDS011;61787;42.022;23.078;2023-07-30T01:03:04;9.02;;;4.07;;
20014;SDS011;61787;42.022;23.078;2023-07-30T01:04:06;5.28;;;4.05;;
20014;SDS011;61787;42.022;23.078;2023-07-30T01:05:07;4.72;;;3.50;;
20014;SDS011;61787;42.022;23.078;2023-07-30T01:06:09;5.40;;;3.60;;
20014;SDS011;61787;42.022;23.078;2023-07-30T01:07:11;5.40;;;3.80;;
20014;SDS011;61787;42.022;23.078;2023-07-30T01:08:13;5.20;;;4.20;;
20014;SDS011;61787;42.022;23.078;2023-07-30T01:09:16;7.60;;;4.35;;
20014;SDS011;61787;42.022;23.078;2023-07-30T01:10:17;11.20;;;4.10;;
20014;SDS011;61787;42.022;23.078;2023-07-30T01:11:20;4.35;;;3.95;;
20014;SDS011;61787;42.022;23.078;2023-07-30T01:12:22;4.72;;;4.18;;
20014;SDS011;61787;42.022;23.078;2023-07-30T01:13:24;4.80;;;3.80;;
20014;SDS011;61787;42.022;23.078;2023-07-30T01:14:28;6.82;;;3.90;;
20014;SDS011;61787;42.022;23.078;2023-07-30T01:15:31;5.05;;;3.92;;
20014;SDS011;61787;42.022;23.078;2023-07-30T01:16:33;3.88;;;3.47;;
20014;SDS011;61787;42.022;23.078;2023-07-30T01:17:35;5.60;;;4.00;;
20014;SDS011;61787;42.022;23.078;2023-07-30T01:18:37;5.90;;;4.07;;
20014;SDS011;61787;42.022;23.078;2023-07-30T01:19:38;5.90;;;4.07;;
20014;SDS011;61787;42.022;23.078;2023-07-30T01:20:40;4.90;;;4.20;;
20014;SDS011;61787;42.022;23.078;2023-07-30T01:21:42;4.30;;;3.78;;
20014;SDS011;61787;42.022;23.078;2023-07-30T01:22:44;4.07;;;3.55;;
20014;SDS011;61787;42.022;23.078;2023-07-30T01:23:45;8.73;;;3.80;;
20014;SDS011;61787;42.022;23.078;2023-07-30T01:24:47;6.13;;;3.88;;
20014;SDS011;61787;42.022;23.078;2023-07-30T01:25:49;4.80;;;3.25;;
20014;SDS011;61787;42.022;23.078;2023-07-30T01:27:11;3.90;;;3.60;;
20014;SDS011;61787;42.022;23.078;2023-07-30T01:28:17;4.75;;;3.92;;
20014;SDS011;61787;42.022;23.078;2023-07-30T01:29:22;4.32;;;3.85;;
20014;SDS011;61787;42.022;23.078;2023-07-30T01:30:46;4.97;;;3.90;;
20014;SDS011;61787;42.022;23.078;2023-07-30T01:31:52;5.38;;;4.15;;
20014;SDS011;61787;42.022;23.078;2023-07-30T01:32:57;5.57;;;4.38;;
20014;SDS011;61787;42.022;23.078;2023-07-30T01:33:59;7.15;;;4.25;;
20014;SDS011;61787;42.022;23.078;2023-07-30T01:35:04;6.13;;;4.18;;
20014;SDS011;61787;42.022;23.078;2023-07-30T01:36:09;3.60;;;3.30;;
20014;SDS011;61787;42.022;23.078;2023-07-30T01:37:15;5.82;;;4.55;;
20014;SDS011;61787;42.022;23.078;2023-07-30T01:38:18;6.07;;;4.07;;
20014;SDS011;61787;42.022;23.078;2023-07-30T01:39:20;4.10;;;3.70;;
20014;SDS011;61787;42.022;23.078;2023-07-30T01:40:22;5.00;;;4.50;;
20014;SDS011;61787;42.022;23.078;2023-07-30T01:41:23;6.82;;;4.18;;
20014;SDS011;61787;42.022;23.078;2023-07-30T01:42:29;5.40;;;4.05;;
20014;SDS011;61787;42.022;23.078;2023-07-30T01:43:31;3.92;;;3.58;;
20014;SDS011;61787;42.022;23.078;2023-07-30T01:44:33;4.25;;;3.85;;
20014;SDS011;61787;42.022;23.078;2023-07-30T01:45:34;5.00;;;3.90;;
20014;SDS011;61787;42.022;23.078;2023-07-30T01:46:36;4.53;;;4.03;;
20014;SDS011;61787;42.022;23.078;2023-07-30T01:47:38;6.40;;;4.07;;
20014;SDS011;61787;42.022;23.078;2023-07-30T01:48:39;5.55;;;3.90;;
20014;SDS011;61787;42.022;23.078;2023-07-30T01:49:41;7.65;;;4.10;;
20014;SDS011;61787;42.022;23.078;2023-07-30T01:50:43;7.30;;;3.90;;
20014;SDS011;61787;42.022;23.078;2023-07-30T01:51:44;4.38;;;3.60;;
20014;SDS011;61787;42.022;23.078;2023-07-30T01:52:47;4.60;;;3.80;;
20014;SDS011;61787;42.022;23.078;2023-07-30T01:53:48;4.20;;;3.80;;
20014;SDS011;61787;42.022;23.078;2023-07-30T01:54:50;4.47;;;3.85;;
20014;SDS011;61787;42.022;23.078;2023-07-30T01:55:52;3.88;;;3.40;;
20014;SDS011;61787;42.022;23.078;2023-07-30T01:56:53;5.40;;;3.95;;
20014;SDS011;61787;42.022;23.078;2023-07-30T01:57:55;4.85;;;4.07;;
20014;SDS011;61787;42.022;23.078;2023-07-30T01:58:57;4.75;;;3.70;;
20014;SDS011;61787;42.022;23.078;2023-07-30T01:59:58;4.55;;;3.88;;
20014;SDS011;61787;42.022;23.078;2023-07-30T02:01:00;4.35;;;3.80;;
20014;SDS011;61787;42.022;23.078;2023-07-30T02:02:02;3.63;;;3.22;;
20014;SDS011;61787;42.022;23.078;2023-07-30T02:03:03;3.47;;;3.17;;
20014;SDS011;61787;42.022;23.078;2023-07-30T02:04:05;4.03;;;3.45;;
20014;SDS011;61787;42.022;23.078;2023-07-30T02:05:07;3.75;;;3.35;;
20014;SDS011;61787;42.022;23.078;2023-07-30T02:06:09;5.00;;;4.05;;
20014;SDS011;61787;42.022;23.078;2023-07-30T02:07:12;3.97;;;3.45;;
20014;SDS011;61787;42.022;23.078;2023-07-30T02:08:13;4.57;;;3.42;;
20014;SDS011;61787;42.022;23.078;2023-07-30T02:09:17;5.05;;;3.78;;
20014;SDS011;61787;42.022;23.078;2023-07-30T02:10:19;7.10;;;3.88;;
20014;SDS011;61787;42.022;23.078;2023-07-30T02:11:20;5.03;;;3.80;;
20014;SDS011;61787;42.022;23.078;2023-07-30T02:12:22;5.57;;;3.80;;
20014;SDS011;61787;42.022;23.078;2023-07-30T02:13:24;5.95;;;3.85;;
20014;SDS011;61787;42.022;23.078;2023-07-30T02:14:26;3.80;;;3.40;;
20014;SDS011;61787;42.022;23.078;2023-07-30T02:15:28;3.60;;;3.13;;
20014;SDS011;61787;42.022;23.078;2023-07-30T02:16:29;4.57;;;3.50;;
20014;SDS011;61787;42.022;23.078;2023-07-30T02:17:31;4.07;;;3.30;;
20014;SDS011;61787;42.022;23.078;2023-07-30T02:18:33;6.40;;;3.58;;
20014;SDS011;61787;42.022;23.078;2023-07-30T02:19:34;3.80;;;3.40;;
20014;SDS011;61787;42.022;23.078;2023-07-30T02:20:36;4.30;;;3.88;;
20014;SDS011;61787;42.022;23.078;2023-07-30T02:21:37;6.75;;;3.78;;
20014;SDS011;61787;42.022;23.078;2023-07-30T02:22:43;4.40;;;3.58;;
20014;SDS011;61787;42.022;23.078;2023-07-30T02:23:45;10.68;;;3.83;;
20014;SDS011;61787;42.022;23.078;2023-07-30T02:24:47;4.72;;;3.40;;
20014;SDS011;61787;42.022;23.078;2023-07-30T02:25:48;7.68;;;3.80;;
20014;SDS011;61787;42.022;23.078;2023-07-30T02:26:50;4.72;;;3.70;;
20014;SDS011;61787;42.022;23.078;2023-07-30T02:27:51;4.38;;;3.95;;
20014;SDS011;61787;42.022;23.078;2023-07-30T02:28:53;4.00;;;3.60;;
20014;SDS011;61787;42.022;23.078;2023-07-30T02:29:55;4.28;;;3.88;;
20014;SDS011;61787;42.022;23.078;2023-07-30T02:30:56;4.10;;;3.60;;
20014;SDS011;61787;42.022;23.078;2023-07-30T02:31:58;6.60;;;3.90;;
20014;SDS011;61787;42.022;23.078;2023-07-30T02:33:01;4.72;;;3.88;;
20014;SDS011;61787;42.022;23.078;2023-07-30T02:34:03;5.82;;;3.85;;
20014;SDS011;61787;42.022;23.078;2023-07-30T02:35:04;4.82;;;4.20;;
20014;SDS011;61787;42.022;23.078;2023-07-30T02:36:06;4.60;;;4.20;;
20014;SDS011;61787;42.022;23.078;2023-07-30T02:37:08;5.47;;;4.20;;
20014;SDS011;61787;42.022;23.078;2023-07-30T02:38:09;5.55;;;3.63;;
20014;SDS011;61787;42.022;23.078;2023-07-30T02:39:11;4.65;;;4.03;;
20014;SDS011;61787;42.022;23.078;2023-07-30T02:40:13;4.10;;;3.70;;
20014;SDS011;61787;42.022;23.078;2023-07-30T02:41:15;4.20;;;3.80;;
20014;SDS011;61787;42.022;23.078;2023-07-30T02:42:17;3.85;;;3.55;;
20014;SDS011;61787;42.022;23.078;2023-07-30T02:43:19;4.82;;;4.00;;
20014;SDS011;61787;42.022;23.078;2023-07-30T02:44:20;6.25;;;3.70;;
20014;SDS011;61787;42.022;23.078;2023-07-30T02:45:22;4.80;;;3.75;;
20014;SDS011;61787;42.022;23.078;2023-07-30T02:46:24;5.40;;;3.65;;
20014;SDS011;61787;42.022;23.078;2023-07-30T02:47:25;3.90;;;3.45;;
20014;SDS011;61787;42.022;23.078;2023-07-30T02:48:27;5.00;;;3.83;;
20014;SDS011;61787;42.022;23.078;2023-07-30T02:49:29;5.40;;;4.15;;
20014;SDS011;61787;42.022;23.078;2023-07-30T02:50:30;4.40;;;3.90;;
20014;SDS011;61787;42.022;23.078;2023-07-30T02:51:32;5.38;;;3.67;;
20014;SDS011;61787;42.022;23.078;2023-07-30T02:52:34;4.40;;;3.50;;
20014;SDS011;61787;42.022;23.078;2023-07-30T02:53:35;6.25;;;4.35;;
20014;SDS011;61787;42.022;23.078;2023-07-30T02:54:37;5.05;;;4.32;;
20014;SDS011;61787;42.022;23.078;2023-07-30T02:55:38;5.07;;;4.13;;
20014;SDS011;61787;42.022;23.078;2023-07-30T02:56:40;4.90;;;4.50;;
20014;SDS011;61787;42.022;23.078;2023-07-30T02:57:42;5.72;;;4.40;;
20014;SDS011;61787;42.022;23.078;2023-07-30T02:58:43;4.50;;;4.10;;
20014;SDS011;61787;42.022;23.078;2023-07-30T02:59:45;5.80;;;4.13;;
20014;SDS011;61787;42.022;23.078;2023-07-30T03:00:47;5.32;;;4.30;;
20014;SDS011;61787;42.022;23.078;2023-07-30T03:01:48;4.95;;;4.22;;
20014;SDS011;61787;42.022;23.078;2023-07-30T03:02:50;7.22;;;4.63;;
20014;SDS011;61787;42.022;23.078;2023-07-30T03:03:52;6.05;;;3.70;;
20014;SDS011;61787;42.022;23.078;2023-07-30T03:04:54;9.35;;;4.70;;
20014;SDS011;61787;42.022;23.078;2023-07-30T03:05:57;9.25;;;4.38;;
20014;SDS011;61787;42.022;23.078;2023-07-30T03:06:59;5.82;;;4.32;;
20014;SDS011;61787;42.022;23.078;2023-07-30T03:08:01;4.85;;;3.60;;
20014;SDS011;61787;42.022;23.078;2023-07-30T03:09:02;4.53;;;3.42;;
20014;SDS011;61787;42.022;23.078;2023-07-30T03:10:04;6.03;;;3.83;;
20014;SDS011;61787;42.022;23.078;2023-07-30T03:11:06;4.25;;;3.85;;
20014;SDS011;61787;42.022;23.078;2023-07-30T03:12:08;6.53;;;4.20;;
20014;SDS011;61787;42.022;23.078;2023-07-30T03:13:09;4.47;;;4.05;;
20014;SDS011;61787;42.022;23.078;2023-07-30T03:14:11;7.00;;;4.13;;
20014;SDS011;61787;42.022;23.078;2023-07-30T03:15:13;6.20;;;4.20;;
20014;SDS011;61787;42.022;23.078;2023-07-30T03:16:14;6.25;;;3.67;;
20014;SDS011;61787;42.022;23.078;2023-07-30T03:17:16;9.95;;;3.92;;
20014;SDS011;61787;42.022;23.078;2023-07-30T03:18:18;4.28;;;3.88;;
20014;SDS011;61787;42.022;23.078;2023-07-30T03:19:19;4.13;;;3.55;;
20014;SDS011;61787;42.022;23.078;2023-07-30T03:20:21;5.60;;;3.88;;
20014;SDS011;61787;42.022;23.078;2023-07-30T03:21:22;4.03;;;3.58;;
20014;SDS011;61787;42.022;23.078;2023-07-30T03:22:24;4.00;;;3.70;;
20014;SDS011;61787;42.022;23.078;2023-07-30T03:23:26;4.32;;;3.55;;
20014;SDS011;61787;42.022;23.078;2023-07-30T03:24:28;4.78;;;3.33;;
20014;SDS011;61787;42.022;23.078;2023-07-30T03:25:30;8.23;;;4.15;;
20014;SDS011;61787;42.022;23.078;2023-07-30T03:26:31;4.43;;;3.60;;
20014;SDS011;61787;42.022;23.078;2023-07-30T03:27:33;5.22;;;3.90;;
20014;SDS011;61787;42.022;23.078;2023-07-30T03:28:35;5.70;;;3.47;;
20014;SDS011;61787;42.022;23.078;2023-07-30T03:29:40;6.03;;;3.50;;
20014;SDS011;61787;42.022;23.078;2023-07-30T03:30:42;4.15;;;3.85;;
20014;SDS011;61787;42.022;23.078;2023-07-30T03:31:44;6.00;;;3.80;;
20014;SDS011;61787;42.022;23.078;2023-07-30T03:32:45;6.30;;;4.03;;
20014;SDS011;61787;42.022;23.078;2023-07-30T03:33:47;5.45;;;3.78;;
20014;SDS011;61787;42.022;23.078;2023-07-30T03:34:49;3.92;;;3.45;;
20014;SDS011;61787;42.022;23.078;2023-07-30T03:35:50;4.40;;;3.58;;
20014;SDS011;61787;42.022;23.078;2023-07-30T03:36:52;4.20;;;3.80;;
20014;SDS011;61787;42.022;23.078;2023-07-30T03:37:53;4.25;;;3.83;;
20014;SDS011;61787;42.022;23.078;2023-07-30T03:38:55;6.88;;;4.07;;
20014;SDS011;61787;42.022;23.078;2023-07-30T03:39:57;5.00;;;3.92;;
20014;SDS011;61787;42.022;23.078;2023-07-30T03:40:58;4.88;;;4.10;;
20014;SDS011;61787;42.022;23.078;2023-07-30T03:42:00;4.43;;;4.03;;
20014;SDS011;61787;42.022;23.078;2023-07-30T03:43:02;5.88;;;4.10;;
20014;SDS011;61787;42.022;23.078;2023-07-30T03:44:03;4.68;;;3.97;;
20014;SDS011;61787;42.022;23.078;2023-07-30T03:45:05;4.90;;;4.40;;
20014;SDS011;61787;42.022;23.078;2023-07-30T03:46:07;4.65;;;3.70;;
20014;SDS011;61787;42.022;23.078;2023-07-30T03:47:09;4.20;;;3.80;;
20014;SDS011;61787;42.022;23.078;2023-07-30T03:48:11;6.00;;;4.00;;
20014;SDS011;61787;42.022;23.078;2023-07-30T03:49:12;6.97;;;4.22;;
20014;SDS011;61787;42.022;23.078;2023-07-30T03:50:14;6.15;;;3.72;;
20014;SDS011;61787;42.022;23.078;2023-07-30T03:51:15;4.93;;;3.67;;
20014;SDS011;61787;42.022;23.078;2023-07-30T03:52:17;4.60;;;4.20;;
20014;SDS011;61787;42.022;23.078;2023-07-30T03:53:19;4.90;;;4.10;;
20014;SDS011;61787;42.022;23.078;2023-07-30T03:54:21;4.47;;;4.03;;
20014;SDS011;61787;42.022;23.078;2023-07-30T03:55:22;7.65;;;4.47;;
20014;SDS011;61787;42.022;23.078;2023-07-30T03:56:24;6.05;;;4.63;;
20014;SDS011;61787;42.022;23.078;2023-07-30T03:57:26;4.97;;;4.22;;
20014;SDS011;61787;42.022;23.078;2023-07-30T03:58:28;9.85;;;4.32;;
20014;SDS011;61787;42.022;23.078;2023-07-30T03:59:31;15.98;;;5.32;;
20014;SDS011;61787;42.022;23.078;2023-07-30T04:00:33;10.63;;;5.00;;
20014;SDS011;61787;42.022;23.078;2023-07-30T04:01:35;9.98;;;5.03;;
20014;SDS011;61787;42.022;23.078;2023-07-30T04:02:37;7.82;;;4.30;;
20014;SDS011;61787;42.022;23.078;2023-07-30T04:03:39;18.15;;;5.35;;
20014;SDS011;61787;42.022;23.078;2023-07-30T04:04:41;10.70;;;6.20;;
20014;SDS011;61787;42.022;23.078;2023-07-30T04:05:45;9.55;;;6.50;;
20014;SDS011;61787;42.022;23.078;2023-07-30T04:06:47;10.93;;;6.32;;
20014;SDS011;61787;42.022;23.078;2023-07-30T04:07:49;9.43;;;5.38;;
20014;SDS011;61787;42.022;23.078;2023-07-30T04:08:50;6.10;;;5.03;;
20014;SDS011;61787;42.022;23.078;2023-07-30T04:09:52;5.28;;;4.40;;
20014;SDS011;61787;42.022;23.078;2023-07-30T04:10:53;5.20;;;4.70;;
20014;SDS011;61787;42.022;23.078;2023-07-30T04:11:55;4.75;;;4.22;;
20014;SDS011;61787;42.022;23.078;2023-07-30T04:12:57;6.72;;;4.50;;
20014;SDS011;61787;42.022;23.078;2023-07-30T04:13:58;6.55;;;4.05;;
20014;SDS011;61787;42.022;23.078;2023-07-30T04:15:00;8.40;;;4.60;;
20014;SDS011;61787;42.022;23.078;2023-07-30T04:16:02;11.40;;;4.90;;
20014;SDS011;61787;42.022;23.078;2023-07-30T04:17:04;4.90;;;4.40;;
20014;SDS011;61787;42.022;23.078;2023-07-30T04:18:05;7.57;;;4.43;;
20014;SDS011;61787;42.022;23.078;2023-07-30T04:19:07;6.70;;;4.30;;
20014;SDS011;61787;42.022;23.078;2023-07-30T04:20:09;4.85;;;4.35;;
20014;SDS011;61787;42.022;23.078;2023-07-30T04:21:11;7.18;;;4.10;;
20014;SDS011;61787;42.022;23.078;2023-07-30T04:22:12;6.10;;;4.18;;
20014;SDS011;61787;42.022;23.078;2023-07-30T04:23:14;6.22;;;4.32;;
20014;SDS011;61787;42.022;23.078;2023-07-30T04:24:16;5.50;;;4.47;;
20014;SDS011;61787;42.022;23.078;2023-07-30T04:25:17;4.75;;;4.22;;
20014;SDS011;61787;42.022;23.078;2023-07-30T04:26:19;5.93;;;4.60;;
20014;SDS011;61787;42.022;23.078;2023-07-30T04:27:21;6.15;;;4.70;;
20014;SDS011;61787;42.022;23.078;2023-07-30T04:28:22;5.10;;;4.60;;
20014;SDS011;61787;42.022;23.078;2023-07-30T04:29:24;7.85;;;4.80;;
20014;SDS011;61787;42.022;23.078;2023-07-30T04:30:26;7.05;;;4.82;;
20014;SDS011;61787;42.022;23.078;2023-07-30T04:31:28;7.20;;;4.82;;
20014;SDS011;61787;42.022;23.078;2023-07-30T04:32:29;5.75;;;4.53;;
20014;SDS011;61787;42.022;23.078;2023-07-30T04:33:31;5.45;;;4.40;;
20014;SDS011;61787;42.022;23.078;2023-07-30T04:34:32;6.65;;;4.28;;
20014;SDS011;61787;42.022;23.078;2023-07-30T04:35:34;8.55;;;4.38;;
20014;SDS011;61787;42.022;23.078;2023-07-30T04:36:36;5.55;;;4.43;;
20014;SDS011;61787;42.022;23.078;2023-07-30T04:37:37;5.75;;;4.50;;
20014;SDS011;61787;42.022;23.078;2023-07-30T04:38:39;8.15;;;4.15;;
20014;SDS011;61787;42.022;23.078;2023-07-30T04:39:41;6.68;;;4.45;;
20014;SDS011;61787;42.022;23.078;2023-07-30T04:40:42;5.32;;;4.82;;
20014;SDS011;61787;42.022;23.078;2023-07-30T04:41:44;7.93;;;4.35;;
20014;SDS011;61787;42.022;23.078;2023-07-30T04:42:46;12.85;;;5.53;;
20014;SDS011;61787;42.022;23.078;2023-07-30T04:43:47;6.25;;;5.00;;
20014;SDS011;61787;42.022;23.078;2023-07-30T04:44:49;8.43;;;4.65;;
20014;SDS011;61787;42.022;23.078;2023-07-30T04:45:51;5.53;;;4.90;;
20014;SDS011;61787;42.022;23.078;2023-07-30T04:46:53;5.53;;;4.80;;
20014;SDS011;61787;42.022;23.078;2023-07-30T04:47:54;10.73;;;4.70;;
20014;SDS011;61787;42.022;23.078;2023-07-30T04:48:56;8.18;;;4.63;;
20014;SDS011;61787;42.022;23.078;2023-07-30T04:49:57;4.78;;;4.38;;
20014;SDS011;61787;42.022;23.078;2023-07-30T04:50:59;6.50;;;4.57;;
20014;SDS011;61787;42.022;23.078;2023-07-30T04:52:01;7.28;;;4.75;;
20014;SDS011;61787;42.022;23.078;2023-07-30T04:53:02;6.22;;;4.57;;
20014;SDS011;61787;42.022;23.078;2023-07-30T04:54:04;6.60;;;4.57;;
20014;SDS011;61787;42.022;23.078;2023-07-30T04:55:06;9.60;;;4.70;;
20014;SDS011;61787;42.022;23.078;2023-07-30T04:56:08;6.57;;;4.88;;
20014;SDS011;61787;42.022;23.078;2023-07-30T04:57:09;4.85;;;4.30;;
20014;SDS011;61787;42.022;23.078;2023-07-30T04:58:11;7.95;;;4.57;;
20014;SDS011;61787;42.022;23.078;2023-07-30T04:59:13;6.53;;;4.57;;
20014;SDS011;61787;42.022;23.078;2023-07-30T05:00:14;9.63;;;4.90;;
20014;SDS011;61787;42.022;23.078;2023-07-30T05:01:16;4.75;;;4.25;;
20014;SDS011;61787;42.022;23.078;2023-07-30T05:02:18;5.97;;;4.22;;
20014;SDS011;61787;42.022;23.078;2023-07-30T05:03:20;5.55;;;4.30;;
20014;SDS011;61787;42.022;23.078;2023-07-30T05:04:21;9.55;;;4.30;;
20014;SDS011;61787;42.022;23.078;2023-07-30T05:05:23;7.40;;;4.43;;
20014;SDS011;61787;42.022;23.078;2023-07-30T05:06:25;7.63;;;4.60;;
20014;SDS011;61787;42.022;23.078;2023-07-30T05:07:26;7.60;;;4.30;;
20014;SDS011;61787;42.022;23.078;2023-07-30T05:08:28;4.55;;;4.13;;
20014;SDS011;61787;42.022;23.078;2023-07-30T05:09:30;10.95;;;4.93;;
20014;SDS011;61787;42.022;23.078;2023-07-30T05:10:31;7.13;;;4.40;;
20014;SDS011;61787;42.022;23.078;2023-07-30T05:11:33;5.05;;;4.50;;
20014;SDS011;61787;42.022;23.078;2023-07-30T05:12:35;7.65;;;4.78;;
20014;SDS011;61787;42.022;23.078;2023-07-30T05:13:36;5.55;;;4.38;;
20014;SDS011;61787;42.022;23.078;2023-07-30T05:14:38;5.50;;;4.93;;
20014;SDS011;61787;42.022;23.078;2023-07-30T05:15:40;7.10;;;5.00;;
20014;SDS011;61787;42.022;23.078;2023-07-30T05:16:41;5.57;;;4.60;;
20014;SDS011;61787;42.022;23.078;2023-07-30T05:17:43;4.47;;;4.07;;
20014;SDS011;61787;42.022;23.078;2023-07-30T05:18:45;6.13;;;4.35;;
20014;SDS011;61787;42.022;23.078;2023-07-30T05:19:46;5.13;;;4.55;;
20014;SDS011;61787;42.022;23.078;2023-07-30T05:20:48;6.82;;;4.10;;
20014;SDS011;61787;42.022;23.078;2023-07-30T05:21:50;6.03;;;4.22;;
20014;SDS011;61787;42.022;23.078;2023-07-30T05:22:52;5.13;;;4.47;;
20014;SDS011;61787;42.022;23.078;2023-07-30T05:23:54;6.80;;;3.97;;
20014;SDS011;61787;42.022;23.078;2023-07-30T05:24:55;4.13;;;3.80;;
20014;SDS011;61787;42.022;23.078;2023-07-30T05:25:58;8.38;;;4.43;;
20014;SDS011;61787;42.022;23.078;2023-07-30T05:26:59;6.00;;;3.70;;
20014;SDS011;61787;42.022;23.078;2023-07-30T05:28:01;4.90;;;3.38;;
20014;SDS011;61787;42.022;23.078;2023-07-30T05:29:02;3.85;;;3.40;;
20014;SDS011;61787;42.022;23.078;2023-07-30T05:30:04;5.15;;;3.72;;
20014;SDS011;61787;42.022;23.078;2023-07-30T05:31:07;7.05;;;3.53;;
20014;SDS011;61787;42.022;23.078;2023-07-30T05:32:08;4.75;;;3.45;;
20014;SDS011;61787;42.022;23.078;2023-07-30T05:33:10;4.10;;;3.70;;
20014;SDS011;61787;42.022;23.078;2023-07-30T05:34:13;4.55;;;3.65;;
20014;SDS011;61787;42.022;23.078;2023-07-30T05:35:14;6.35;;;3.33;;
20014;SDS011;61787;42.022;23.078;2023-07-30T05:36:16;3.70;;;3.40;;
20014;SDS011;61787;42.022;23.078;2023-07-30T05:37:18;4.38;;;3.78;;
20014;SDS011;61787;42.022;23.078;2023-07-30T05:38:19;5.22;;;3.60;;
20014;SDS011;61787;42.022;23.078;2023-07-30T05:39:21;3.78;;;3.47;;
20014;SDS011;61787;42.022;23.078;2023-07-30T05:40:23;3.83;;;3.53;;
20014;SDS011;61787;42.022;23.078;2023-07-30T05:41:25;5.15;;;3.78;;
20014;SDS011;61787;42.022;23.078;2023-07-30T05:42:26;4.28;;;3.70;;
20014;SDS011;61787;42.022;23.078;2023-07-30T05:43:28;4.95;;;3.50;;
20014;SDS011;61787;42.022;23.078;2023-07-30T05:44:29;4.40;;;4.05;;
20014;SDS011;61787;42.022;23.078;2023-07-30T05:45:31;5.00;;;3.55;;
20014;SDS011;61787;42.022;23.078;2023-07-30T05:46:34;6.10;;;4.10;;
20014;SDS011;61787;42.022;23.078;2023-07-30T05:47:36;4.40;;;3.97;;
20014;SDS011;61787;42.022;23.078;2023-07-30T05:48:38;4.78;;;3.85;;
20014;SDS011;61787;42.022;23.078;2023-07-30T05:49:39;5.13;;;4.25;;
20014;SDS011;61787;42.022;23.078;2023-07-30T05:50:41;4.65;;;4.05;;
20014;SDS011;61787;42.022;23.078;2023-07-30T05:51:43;5.63;;;4.20;;
20014;SDS011;61787;42.022;23.078;2023-07-30T05:52:44;4.38;;;3.80;;
20014;SDS011;61787;42.022;23.078;2023-07-30T05:53:46;4.05;;;3.65;;
20014;SDS011;61787;42.022;23.078;2023-07-30T05:54:48;5.63;;;4.50;;
20014;SDS011;61787;42.022;23.078;2023-07-30T05:55:50;7.65;;;4.13;;
20014;SDS011;61787;42.022;23.078;2023-07-30T05:56:51;5.35;;;3.63;;
20014;SDS011;61787;42.022;23.078;2023-07-30T05:57:53;5.05;;;4.22;;
20014;SDS011;61787;42.022;23.078;2023-07-30T05:58:55;5.30;;;4.25;;
20014;SDS011;61787;42.022;23.078;2023-07-30T05:59:56;5.25;;;4.35;;
20014;SDS011;61787;42.022;23.078;2023-07-30T06:00:58;4.78;;;3.70;;
20014;SDS011;61787;42.022;23.078;2023-07-30T06:02:01;4.95;;;4.10;;
20014;SDS011;61787;42.022;23.078;2023-07-30T06:03:04;6.82;;;3.85;;
20014;SDS011;61787;42.022;23.078;2023-07-30T06:04:07;4.10;;;3.75;;
20014;SDS011;61787;42.022;23.078;2023-07-30T06:05:09;4.25;;;3.42;;
20014;SDS011;61787;42.022;23.078;2023-07-30T06:06:11;4.95;;;4.47;;
20014;SDS011;61787;42.022;23.078;2023-07-30T06:07:12;6.95;;;4.25;;
20014;SDS011;61787;42.022;23.078;2023-07-30T06:08:14;4.55;;;4.13;;